createdAt,value
2018-09-02T00:00:07.271Z,9.23
2018-09-02T00:02:35.456Z,8.10
2018-09-02T00:05:03.604Z,7.87
2018-09-02T00:07:31.760Z,10.63
2018-09-02T00:09:59.944Z,7.30
2018-09-02T00:12:28.104Z,8.30
2018-09-02T00:14:56.264Z,7.43
2018-09-02T00:17:24.461Z,8.50
2018-09-02T00:19:52.613Z,8.30
2018-09-02T00:22:20.804Z,6.53
2018-09-02T00:24:49.002Z,9.20
2018-09-02T00:27:17.233Z,8.77
2018-09-02T00:29:45.400Z,8.60
2018-09-02T00:32:13.662Z,7.23
2018-09-02T00:34:41.828Z,7.23
2018-09-02T00:37:09.982Z,6.20
2018-09-02T00:39:38.155Z,5.83
2018-09-02T00:42:06.314Z,6.93
2018-09-02T00:44:34.472Z,8.97
2018-09-02T00:47:02.767Z,8.00
2018-09-02T00:49:30.932Z,9.17
2018-09-02T00:51:59.088Z,10.37
2018-09-02T00:54:27.241Z,8.03
2018-09-02T00:56:55.439Z,11.10
2018-09-02T00:59:23.612Z,9.20
2018-09-02T01:01:51.796Z,8.40
2018-09-02T01:04:19.944Z,7.43
2018-09-02T01:06:48.113Z,7.90
2018-09-02T01:09:16.296Z,8.27
2018-09-02T01:11:44.459Z,6.80
2018-09-02T01:14:12.747Z,6.60
2018-09-02T01:16:40.996Z,10.83
2018-09-02T01:19:09.145Z,8.17
2018-09-02T01:21:37.330Z,10.60
2018-09-02T01:24:05.496Z,10.10
2018-09-02T01:26:33.656Z,8.10
2018-09-02T01:29:01.826Z,6.20
2018-09-02T01:31:30.322Z,7.90
2018-09-02T01:33:58.488Z,8.07
2018-09-02T01:36:26.636Z,7.40
2018-09-02T01:38:54.812Z,7.07
2018-09-02T01:41:22.972Z,7.13
2018-09-02T01:43:51.139Z,7.07
2018-09-02T01:46:19.307Z,6.40
2018-09-02T01:48:47.456Z,8.20
2018-09-02T01:51:15.636Z,6.20
2018-09-02T01:53:43.796Z,6.93
2018-09-02T01:56:12.419Z,9.03
2018-09-02T01:58:40.584Z,8.90
2018-09-02T02:01:08.744Z,6.70
2018-09-02T02:03:36.913Z,8.23
2018-09-02T02:06:05.083Z,10.30
2018-09-02T02:08:33.240Z,9.00
2018-09-02T02:11:01.413Z,7.30
2018-09-02T02:13:29.572Z,11.20
2018-09-02T02:15:57.721Z,7.37
2018-09-02T02:18:25.888Z,9.20
2018-09-02T02:20:54.050Z,6.10
2018-09-02T02:23:22.213Z,10.50
2018-09-02T02:25:50.375Z,9.87
2018-09-02T02:28:18.513Z,6.03
2018-09-02T02:30:46.670Z,11.00
2018-09-02T02:33:14.824Z,7.63
2018-09-02T02:35:42.984Z,7.97
2018-09-02T02:38:11.176Z,8.03
2018-09-02T02:40:39.355Z,10.50
2018-09-02T02:43:07.507Z,7.73
2018-09-02T02:45:35.666Z,5.80
2018-09-02T02:48:03.833Z,8.77
2018-09-02T02:50:31.988Z,6.67
2018-09-02T02:53:04.872Z,9.27
2018-09-02T02:55:34.288Z,6.80
2018-09-02T02:58:02.876Z,6.27
2018-09-02T03:00:31.417Z,7.60
2018-09-02T03:02:59.576Z,8.70
2018-09-02T03:05:27.832Z,6.80
2018-09-02T03:07:56.080Z,7.73
2018-09-02T03:10:24.236Z,7.80
2018-09-02T03:12:52.392Z,7.00
2018-09-02T03:15:20.548Z,8.10
2018-09-02T03:17:48.780Z,6.23
2018-09-02T03:20:17.005Z,9.83
2018-09-02T03:22:46.143Z,5.80
2018-09-02T03:25:14.329Z,6.60
2018-09-02T03:27:42.488Z,8.77
2018-09-02T03:30:11.048Z,6.07
2018-09-02T03:32:39.203Z,7.13
2018-09-02T03:35:07.380Z,7.03
2018-09-02T03:37:35.548Z,7.77
2018-09-02T03:40:03.712Z,8.40
2018-09-02T03:42:31.915Z,9.13
2018-09-02T03:45:00.052Z,9.13
2018-09-02T03:47:28.195Z,9.50
2018-09-02T03:49:56.352Z,10.33
2018-09-02T03:52:24.517Z,6.40
2018-09-02T03:54:52.680Z,7.63
2018-09-02T03:57:20.832Z,7.93
2018-09-02T03:59:48.984Z,7.50
2018-09-02T04:02:17.144Z,8.17
2018-09-02T04:04:45.286Z,9.60
2018-09-02T04:07:13.445Z,8.17
2018-09-02T04:09:41.608Z,11.17
2018-09-02T04:12:09.773Z,8.57
2018-09-02T04:14:37.934Z,7.80
2018-09-02T04:17:06.085Z,11.57
2018-09-02T04:19:34.236Z,8.63
2018-09-02T04:22:02.405Z,7.30
2018-09-02T04:24:30.568Z,8.83
2018-09-02T04:26:58.724Z,8.43
2018-09-02T04:29:26.880Z,9.20
2018-09-02T04:31:57.359Z,7.70
2018-09-02T04:34:26.276Z,8.17
2018-09-02T04:36:54.747Z,8.63
2018-09-02T04:39:23.193Z,9.40
2018-09-02T04:41:51.621Z,8.13
2018-09-02T04:44:20.105Z,7.40
2018-09-02T04:46:49.230Z,7.77
2018-09-02T04:49:17.861Z,8.13
2018-09-02T04:51:46.290Z,11.23
2018-09-02T04:54:14.932Z,8.50
2018-09-02T04:56:43.497Z,8.27
2018-09-02T04:59:11.992Z,11.07
2018-09-02T05:01:40.405Z,11.43
2018-09-02T05:04:08.764Z,8.97
2018-09-02T05:06:37.242Z,9.57
2018-09-02T05:09:06.260Z,8.87
2018-09-02T05:11:34.773Z,7.70
2018-09-02T05:14:03.213Z,7.70
2018-09-02T05:16:31.833Z,8.70
2018-09-02T05:19:00.174Z,7.53
2018-09-02T05:21:28.546Z,7.43
2018-09-02T05:23:56.821Z,7.90
2018-09-02T05:26:25.160Z,7.83
2018-09-02T05:28:53.640Z,7.63
2018-09-02T05:31:22.111Z,14.87
2018-09-02T05:33:50.358Z,7.20
2018-09-02T05:36:18.721Z,8.30
2018-09-02T05:38:46.978Z,8.27
2018-09-02T05:41:15.214Z,8.17
2018-09-02T05:43:43.437Z,10.20
2018-09-02T05:46:11.652Z,12.20
2018-09-02T05:48:39.928Z,10.33
2018-09-02T05:51:08.239Z,8.53
2018-09-02T05:53:36.489Z,7.70
2018-09-02T05:56:04.855Z,9.23
2018-09-02T05:58:33.122Z,7.93
2018-09-02T06:01:01.376Z,9.03
2018-09-02T06:03:29.653Z,9.20
2018-09-02T06:05:57.876Z,8.10
2018-09-02T06:08:26.115Z,10.73
2018-09-02T06:10:54.351Z,9.07
2018-09-02T06:13:22.608Z,9.83
2018-09-02T06:15:50.853Z,10.57
2018-09-02T06:18:19.192Z,11.77
2018-09-02T06:20:47.447Z,10.90
2018-09-02T06:23:15.720Z,10.50
2018-09-02T06:25:44.015Z,10.77
2018-09-02T06:28:12.284Z,12.33
2018-09-02T06:30:40.565Z,11.50
2018-09-02T06:33:08.824Z,13.27
2018-09-02T06:35:37.136Z,11.90
2018-09-02T06:38:05.327Z,12.53
2018-09-02T06:40:33.558Z,10.87
2018-09-02T06:43:01.890Z,11.07
2018-09-02T06:45:30.149Z,15.53
2018-09-02T06:47:58.417Z,14.57
2018-09-02T06:50:26.670Z,12.33
2018-09-02T06:52:54.907Z,13.50
2018-09-02T06:55:23.156Z,12.63
2018-09-02T06:57:51.356Z,13.63
2018-09-02T07:00:19.690Z,13.17
2018-09-02T07:02:48.005Z,14.17
2018-09-02T07:05:16.268Z,13.63
2018-09-02T07:07:44.505Z,12.50
2018-09-02T07:10:12.752Z,15.33
2018-09-02T07:12:40.975Z,12.60
2018-09-02T07:15:09.256Z,14.20
2018-09-02T07:17:37.488Z,12.67
2018-09-02T07:20:05.755Z,12.83
2018-09-02T07:22:33.982Z,11.40
2018-09-02T07:25:02.257Z,13.90
2018-09-02T07:27:31.352Z,11.67
2018-09-02T07:29:59.616Z,9.63
2018-09-02T07:32:27.853Z,9.50
2018-09-02T07:34:56.135Z,10.13
2018-09-02T07:37:24.345Z,10.53
2018-09-02T07:39:52.625Z,9.03
2018-09-02T07:42:20.879Z,10.13
2018-09-02T07:44:49.132Z,9.47
2018-09-02T07:47:17.433Z,7.77
2018-09-02T07:49:45.641Z,7.73
2018-09-02T07:52:13.916Z,8.00
2018-09-02T07:54:42.115Z,7.90
2018-09-02T07:57:10.351Z,10.13
2018-09-02T07:59:38.530Z,8.30
2018-09-02T08:02:06.786Z,6.87
2018-09-02T08:04:35.018Z,6.87
2018-09-02T08:07:03.230Z,7.73
2018-09-02T08:09:31.437Z,8.87
2018-09-02T08:11:59.645Z,8.13
2018-09-02T08:14:27.886Z,8.93
2018-09-02T08:16:56.080Z,7.53
2018-09-02T08:19:24.327Z,8.13
2018-09-02T08:21:52.567Z,7.90
2018-09-02T08:24:20.796Z,8.87
2018-09-02T08:26:49.553Z,6.93
2018-09-02T08:29:17.778Z,8.43
2018-09-02T08:31:46.027Z,7.23
2018-09-02T08:34:14.336Z,8.53
2018-09-02T08:36:42.321Z,7.93
2018-09-02T08:39:11.566Z,5.93
2018-09-02T08:41:41.031Z,6.50
2018-09-02T08:44:09.191Z,6.03
2018-09-02T08:46:37.693Z,4.73
2018-09-02T08:49:05.928Z,6.87
2018-09-02T08:51:34.084Z,6.07
2018-09-02T08:54:02.228Z,8.77
2018-09-02T08:56:30.140Z,4.93
2018-09-02T08:58:58.304Z,5.03
2018-09-02T09:01:26.488Z,5.57
2018-09-02T09:03:54.671Z,5.57
2018-09-02T09:06:23.639Z,5.23
2018-09-02T09:08:52.153Z,5.03
2018-09-02T09:11:20.221Z,5.57
2018-09-02T09:13:48.784Z,6.00
2018-09-02T09:16:17.597Z,6.23
2018-09-02T09:18:45.856Z,4.93
2018-09-02T09:21:14.018Z,4.37
2018-09-02T09:23:42.167Z,4.50
2018-09-02T09:26:10.320Z,6.77
2018-09-02T09:28:38.473Z,3.87
2018-09-02T09:31:07.368Z,4.57
2018-09-02T09:33:35.516Z,6.13
2018-09-02T09:36:03.724Z,3.87
2018-09-02T09:38:31.871Z,6.13
2018-09-02T09:41:00.026Z,3.20
2018-09-02T09:43:28.521Z,4.33
2018-09-02T09:45:56.692Z,3.10
2018-09-02T09:48:24.808Z,4.50
2018-09-02T09:50:53.023Z,3.17
2018-09-02T09:53:21.180Z,3.85
2018-09-02T09:55:49.324Z,3.65
2018-09-02T09:58:17.480Z,4.05
2018-09-02T10:00:48.697Z,3.37
2018-09-02T10:03:17.270Z,4.60
2018-09-02T10:05:45.420Z,4.07
2018-09-02T10:08:13.632Z,3.47
2018-09-02T10:10:42.116Z,3.60
2018-09-02T10:13:10.289Z,2.83
2018-09-02T10:15:39.013Z,2.70
2018-09-02T10:18:07.464Z,4.35
2018-09-02T10:20:35.552Z,2.83
2018-09-02T10:23:04.143Z,2.87
2018-09-02T10:25:32.520Z,2.67
2018-09-02T10:28:00.709Z,2.17
2018-09-02T10:30:28.887Z,3.35
2018-09-02T10:32:57.683Z,3.87
2018-09-02T10:35:26.759Z,4.22
2018-09-02T10:37:54.952Z,3.85
2018-09-02T10:40:23.136Z,2.80
2018-09-02T10:42:51.917Z,3.65
2018-09-02T10:45:20.080Z,3.22
2018-09-02T10:47:48.235Z,3.33
2018-09-02T10:50:16.376Z,3.50
2018-09-02T10:52:44.544Z,2.67
2018-09-02T10:55:12.709Z,4.27
2018-09-02T10:57:40.860Z,3.60
2018-09-02T11:00:09.898Z,2.98
2018-09-02T11:02:38.307Z,2.72
2018-09-02T11:05:07.404Z,3.33
2018-09-02T11:07:35.587Z,3.10
2018-09-02T11:10:03.750Z,3.00
2018-09-02T11:12:31.899Z,4.97
2018-09-02T11:15:00.056Z,2.57
2018-09-02T11:17:28.214Z,42.13
2018-09-02T11:19:56.365Z,5.05
2018-09-02T11:22:24.516Z,2.77
2018-09-02T11:24:52.680Z,2.30
2018-09-02T11:27:20.832Z,3.60
2018-09-02T11:29:49.025Z,6.17
2018-09-02T11:32:17.214Z,4.53
2018-09-02T11:34:45.376Z,2.77
2018-09-02T11:37:13.517Z,3.50
2018-09-02T11:39:41.666Z,3.63
2018-09-02T11:42:09.900Z,4.00
2018-09-02T11:44:38.064Z,3.60
2018-09-02T11:47:06.214Z,6.73
2018-09-02T11:49:34.401Z,4.70
2018-09-02T11:52:02.546Z,5.23
2018-09-02T11:54:30.696Z,3.07
2018-09-02T11:56:58.864Z,2.80
2018-09-02T11:59:27.023Z,2.20
2018-09-02T12:01:55.173Z,3.30
2018-09-02T12:04:23.348Z,2.87
2018-09-02T12:06:51.496Z,4.87
2018-09-02T12:09:19.645Z,3.73
2018-09-02T12:11:47.898Z,2.60
2018-09-02T12:14:15.944Z,3.03
2018-09-02T12:16:44.099Z,2.67
2018-09-02T12:19:12.252Z,3.43
2018-09-02T12:21:40.408Z,2.60
2018-09-02T12:24:08.565Z,4.37
2018-09-02T12:26:36.829Z,4.07
2018-09-02T12:29:04.976Z,2.47
2018-09-02T12:31:33.216Z,2.90
2018-09-02T12:34:01.284Z,6.77
2018-09-02T12:36:29.459Z,3.13
2018-09-02T12:38:57.708Z,2.93
2018-09-02T12:41:25.859Z,2.50
2018-09-02T12:43:54.020Z,8.30
2018-09-02T12:46:22.181Z,3.60
2018-09-02T12:48:50.404Z,5.07
2018-09-02T12:51:18.500Z,5.07
2018-09-02T12:53:46.657Z,6.30
2018-09-02T12:56:14.808Z,2.40
2018-09-02T12:58:42.962Z,2.07
2018-09-02T13:01:11.179Z,3.47
2018-09-02T13:03:39.276Z,2.20
2018-09-02T13:06:07.417Z,2.70
2018-09-02T13:08:35.585Z,2.30
2018-09-02T13:11:03.728Z,3.50
2018-09-02T13:13:31.885Z,2.60
2018-09-02T13:16:00.069Z,3.33
2018-09-02T13:18:28.212Z,2.53
2018-09-02T13:20:56.368Z,2.30
2018-09-02T13:23:24.551Z,2.43
2018-09-02T13:25:52.692Z,3.67
2018-09-02T13:28:20.844Z,2.60
2018-09-02T13:30:49.035Z,2.63
2018-09-02T13:33:17.190Z,2.43
2018-09-02T13:35:45.346Z,2.40
2018-09-02T13:38:13.537Z,2.63
2018-09-02T13:40:41.693Z,2.40
2018-09-02T13:43:09.888Z,2.53
2018-09-02T13:45:38.128Z,2.80
2018-09-02T13:48:06.282Z,2.67
2018-09-02T13:50:34.464Z,3.07
2018-09-02T13:53:02.626Z,2.90
2018-09-02T13:55:30.776Z,5.57
2018-09-02T13:57:58.920Z,2.43
2018-09-02T14:00:27.081Z,4.23
2018-09-02T14:02:55.228Z,2.40
2018-09-02T14:05:23.384Z,3.07
2018-09-02T14:07:51.599Z,2.37
2018-09-02T14:10:19.732Z,3.73
2018-09-02T14:12:47.894Z,3.60
2018-09-02T14:15:16.039Z,2.30
2018-09-02T14:17:44.440Z,3.00
2018-09-02T14:20:12.620Z,6.33
2018-09-02T14:22:40.825Z,3.93
2018-09-02T14:25:08.987Z,3.40
2018-09-02T14:27:37.195Z,2.50
2018-09-02T14:30:05.467Z,3.87
2018-09-02T14:32:33.644Z,2.40
2018-09-02T14:35:01.804Z,3.00
2018-09-02T14:37:29.987Z,2.73
2018-09-02T14:39:58.142Z,4.13
2018-09-02T14:42:26.303Z,2.63
2018-09-02T14:44:54.464Z,4.73
2018-09-02T14:47:22.600Z,4.70
2018-09-02T14:49:50.760Z,2.27
2018-09-02T14:52:18.906Z,3.47
2018-09-02T14:54:47.060Z,3.93
2018-09-02T14:57:15.227Z,2.83
2018-09-02T14:59:43.396Z,3.83
2018-09-02T15:02:11.644Z,3.37
2018-09-02T15:04:39.800Z,2.40
2018-09-02T15:07:07.956Z,3.57
2018-09-02T15:09:36.107Z,2.50
2018-09-02T15:12:04.273Z,3.47
2018-09-02T15:14:32.416Z,2.93
2018-09-02T15:17:00.562Z,2.50
2018-09-02T15:19:28.732Z,2.67
2018-09-02T15:21:57.385Z,3.30
2018-09-02T15:24:25.618Z,2.40
2018-09-02T15:26:53.827Z,4.23
2018-09-02T15:29:21.968Z,3.83
2018-09-02T15:31:51.518Z,2.10
2018-09-02T15:34:19.738Z,2.70
2018-09-02T15:36:47.980Z,2.50
2018-09-02T15:39:16.260Z,3.60
2018-09-02T15:41:44.890Z,2.80
2018-09-02T15:44:13.228Z,2.97
2018-09-02T15:46:41.331Z,2.80
2018-09-02T15:49:09.564Z,3.93
2018-09-02T15:51:37.773Z,2.27
2018-09-02T15:54:06.013Z,3.97
2018-09-02T15:56:34.327Z,3.30
2018-09-02T15:59:02.576Z,2.90
2018-09-02T16:01:30.891Z,2.40
2018-09-02T16:03:59.170Z,2.77
2018-09-02T16:06:27.391Z,3.90
2018-09-02T16:08:55.625Z,3.50
2018-09-02T16:11:23.874Z,2.60
2018-09-02T16:13:52.147Z,4.07
2018-09-02T16:16:20.379Z,3.50
2018-09-02T16:18:48.600Z,2.83
2018-09-02T16:21:16.835Z,4.03
2018-09-02T16:23:45.063Z,5.50
2018-09-02T16:26:13.369Z,2.30
2018-09-02T16:28:41.583Z,3.70
2018-09-02T16:31:09.855Z,2.80
2018-09-02T16:33:38.197Z,2.50
2018-09-02T16:36:06.480Z,2.50
2018-09-02T16:38:34.702Z,2.50
2018-09-02T16:41:03.001Z,2.30
2018-09-02T16:43:31.202Z,2.57
2018-09-02T16:45:59.469Z,3.30
2018-09-02T16:48:27.724Z,2.93
2018-09-02T16:50:56.060Z,4.10
2018-09-02T16:53:24.276Z,3.50
2018-09-02T16:55:52.523Z,2.33
2018-09-02T16:58:20.847Z,2.40
2018-09-02T17:00:49.288Z,3.50
2018-09-02T17:03:17.565Z,2.80
2018-09-02T17:05:45.787Z,3.53
2018-09-02T17:08:14.144Z,4.47
2018-09-02T17:10:42.533Z,3.17
2018-09-02T17:13:10.874Z,3.03
2018-09-02T17:15:39.153Z,4.60
2018-09-02T17:18:07.466Z,2.37
2018-09-02T17:20:37.996Z,5.27
2018-09-02T17:23:11.029Z,3.57
2018-09-02T17:25:39.836Z,2.30
2018-09-02T17:28:08.028Z,3.60
2018-09-02T17:30:36.656Z,2.90
2018-09-02T17:33:05.261Z,3.33
2018-09-02T17:35:33.463Z,4.53
2018-09-02T17:38:01.647Z,3.37
2018-09-02T17:40:30.010Z,3.70
2018-09-02T17:42:58.218Z,2.50
2018-09-02T17:45:26.472Z,2.70
2018-09-02T17:47:54.926Z,3.30
2018-09-02T17:50:23.293Z,2.53
2018-09-02T17:52:51.528Z,2.50
2018-09-02T17:55:19.769Z,3.37
2018-09-02T17:57:48.056Z,2.70
2018-09-02T18:00:25.758Z,4.50
2018-09-02T18:02:53.912Z,6.43
2018-09-02T18:05:22.068Z,3.63
2018-09-02T18:07:50.240Z,2.60
2018-09-02T18:10:18.621Z,4.07
2018-09-02T18:12:46.768Z,2.40
2018-09-02T18:15:14.964Z,6.77
2018-09-02T18:17:43.136Z,4.83
2018-09-02T18:20:12.567Z,2.43
2018-09-02T18:22:40.724Z,2.40
2018-09-02T18:25:09.973Z,4.87
2018-09-02T18:27:40.182Z,4.80
2018-09-02T18:30:08.406Z,4.03
2018-09-02T18:35:10.799Z,2.47
2018-09-02T18:37:38.932Z,3.10
2018-09-02T18:40:07.196Z,3.90
2018-09-02T18:42:35.420Z,2.27
2018-09-02T18:45:03.589Z,4.60
2018-09-02T18:47:31.768Z,2.57
2018-09-02T18:49:59.944Z,2.83
2018-09-02T18:52:28.099Z,3.27
2018-09-02T18:54:57.053Z,2.90
2018-09-02T18:57:25.236Z,3.60
2018-09-02T18:59:53.384Z,2.47
2018-09-02T19:02:21.555Z,3.00
2018-09-02T19:04:49.712Z,3.10
2018-09-02T19:07:17.859Z,2.57
2018-09-02T19:09:46.089Z,3.33
2018-09-02T19:12:14.169Z,2.53
2018-09-02T19:14:42.390Z,2.20
2018-09-02T19:17:10.509Z,2.97
2018-09-02T19:19:38.672Z,4.40
2018-09-02T19:22:06.835Z,4.60
2018-09-02T19:24:35.528Z,4.33
2018-09-02T19:27:03.724Z,2.37
2018-09-02T19:29:31.879Z,3.70
2018-09-02T19:32:00.036Z,4.87
2018-09-02T19:34:28.194Z,2.70
2018-09-02T19:36:56.389Z,4.00
2018-09-02T19:39:24.553Z,2.20
2018-09-02T19:41:52.754Z,2.50
2018-09-02T19:44:20.909Z,2.53
2018-09-02T19:46:49.074Z,2.47
2018-09-02T19:49:17.250Z,4.67
2018-09-02T19:51:45.412Z,3.60
2018-09-02T19:54:13.620Z,2.63
2018-09-02T19:56:41.786Z,3.63
2018-09-02T19:59:10.004Z,3.20
2018-09-02T20:01:38.212Z,2.97
2018-09-02T20:04:06.613Z,3.77
2018-09-02T20:06:34.796Z,3.73
2018-09-02T20:09:03.053Z,3.83
2018-09-02T20:11:31.229Z,3.10
2018-09-02T20:13:59.407Z,3.00
2018-09-02T20:16:27.589Z,4.03
2018-09-02T20:18:55.791Z,2.57
2018-09-02T20:21:23.925Z,2.60
2018-09-02T20:23:52.195Z,6.70
2018-09-02T20:26:20.278Z,3.23
2018-09-02T20:28:48.492Z,6.30
2018-09-02T20:31:16.640Z,5.23
2018-09-02T20:33:44.800Z,5.30
2018-09-02T20:36:12.972Z,6.03
2018-09-02T20:38:41.124Z,4.20
2018-09-02T20:41:09.300Z,4.53
2018-09-02T20:43:37.460Z,3.30
2018-09-02T20:46:05.828Z,5.57
2018-09-02T20:48:34.013Z,4.77
2018-09-02T20:51:02.195Z,3.80
2018-09-02T20:53:30.320Z,4.03
2018-09-02T20:55:58.487Z,5.00
2018-09-02T20:58:26.641Z,2.70
2018-09-02T21:00:54.835Z,2.73
2018-09-02T21:03:23.008Z,4.90
2018-09-02T21:05:51.205Z,3.73
2018-09-02T21:08:19.421Z,3.10
2018-09-02T21:10:47.548Z,3.87
2018-09-02T21:13:15.706Z,3.77
2018-09-02T21:15:43.857Z,4.77
2018-09-02T21:18:12.019Z,3.27
2018-09-02T21:20:40.292Z,3.23
2018-09-02T21:23:08.445Z,4.27
2018-09-02T21:25:36.600Z,3.47
2018-09-02T21:28:04.753Z,6.27
2018-09-02T21:30:32.909Z,4.53
2018-09-02T21:33:01.060Z,5.33
2018-09-02T21:35:29.224Z,3.47
2018-09-02T21:37:57.392Z,3.50
2018-09-02T21:40:25.552Z,5.70
2018-09-02T21:42:53.708Z,7.63
2018-09-02T21:45:21.854Z,3.47
2018-09-02T21:47:50.016Z,3.70
2018-09-02T21:50:18.180Z,3.27
2018-09-02T21:52:46.334Z,3.47
2018-09-02T21:55:14.487Z,3.80
2018-09-02T21:57:42.653Z,4.90
2018-09-02T22:00:12.802Z,4.37
2018-09-02T22:02:41.084Z,4.57
2018-09-02T22:05:10.965Z,5.73
2018-09-02T22:07:39.636Z,5.97
2018-09-02T22:10:07.885Z,3.83
2018-09-02T22:12:36.036Z,3.63
2018-09-02T22:15:04.466Z,3.80
2018-09-02T22:17:32.628Z,5.20
2018-09-02T22:20:00.781Z,5.17
2018-09-02T22:22:29.116Z,5.60
2018-09-02T22:24:57.283Z,5.03
2018-09-02T22:27:25.444Z,6.47
2018-09-02T22:29:53.609Z,4.13
2018-09-02T22:32:21.803Z,3.80
2018-09-02T22:34:49.973Z,5.80
2018-09-02T22:37:18.132Z,5.93
2018-09-02T22:39:46.293Z,3.63
2018-09-02T22:42:14.440Z,4.90
2018-09-02T22:44:42.594Z,4.77
2018-09-02T22:47:11.085Z,3.67
2018-09-02T22:49:39.231Z,5.30
2018-09-02T22:52:07.384Z,4.97
2018-09-02T22:54:35.538Z,3.80
2018-09-02T22:57:03.703Z,3.70
2018-09-02T22:59:31.856Z,3.77
2018-09-02T23:02:00.028Z,4.03
2018-09-02T23:04:28.177Z,4.37
2018-09-02T23:06:56.329Z,6.83
2018-09-02T23:09:24.504Z,3.70
2018-09-02T23:11:52.664Z,4.37
2018-09-02T23:14:20.824Z,4.57
2018-09-02T23:16:48.973Z,4.33
2018-09-02T23:19:17.171Z,4.90
2018-09-02T23:21:45.286Z,4.97
2018-09-02T23:24:13.427Z,3.70
2018-09-02T23:26:41.593Z,7.23
2018-09-02T23:29:09.743Z,4.87
2018-09-02T23:31:37.907Z,3.90
2018-09-02T23:34:06.104Z,6.03
2018-09-02T23:36:34.273Z,5.93
2018-09-02T23:39:02.421Z,3.93
2018-09-02T23:41:30.624Z,3.83
2018-09-02T23:43:58.778Z,5.07
2018-09-02T23:46:26.937Z,4.80
2018-09-02T23:48:55.152Z,3.73
2018-09-02T23:51:23.292Z,5.40
2018-09-02T23:53:51.448Z,4.10
2018-09-02T23:56:19.616Z,4.43
2018-09-02T23:58:47.763Z,4.83
